Loyalhanna, Pennsylvania
Current Conditions -  °F | °C
As of 8:50 PM on Sunday 25 Jan 2015 (Local Time) from KLBE Reporting Station
Light Snow Light Snow  
Wind Chill: 26°   Ceiling: 200
Heat Index: 32°   Visibility: 1.2mi
Dew Point: 32°   Wind: 6mph
Humidity: 100%   Direction: NA
Pressure: 29.8"   Gusts: NA
Location:  40.32°N, 79.36°W
Report Text: KLBE 260150Z VRB05KT 1 1/4SM -SN OVC002 00/00 A2980
Loading
Personal Weather Stations






























Interactive Weather Map New forecast layout! Learn more

10-Day Weather Forecast

Advertisements
Track Severe Weather on mobile